Terminal Aerodrome Forecast
Issued by NWS

Home | Current Version | Previous Version | Text Only | Print | Product List | Glossary On
Versions: 1 2 3 4 5 6 7 8 9 10 11 12 13 14 15
000
FTUS41 KBTV 300528
TAFMSS
TAF
KMSS 300528Z 3006/3106 18003KT P6SM SCT150 BKN250
     FM301200 21013KT P6SM SCT100
     FM301500 21017G27KT P6SM SCT050 BKN100
     FM301700 22017G27KT P6SM VCSH BKN050
     FM302100 23015G27KT P6SM -SHRA OVC050
     FM310200 30015G23KT P6SM -SHRA OVC040=

USA.gov is the U.S. government's official web portal to all federal, state and local government web resources and services.